createdAt,value
2023-03-05T00:01:24.928Z,8.55
2023-03-05T00:03:54.381Z,8.13
2023-03-05T00:06:23.320Z,8.70
2023-03-05T00:08:51.928Z,7.97
2023-03-05T00:11:20.626Z,7.47
2023-03-05T00:13:48.114Z,7.68
2023-03-05T00:16:16.207Z,8.25
2023-03-05T00:18:44.813Z,7.93
2023-03-05T00:21:25.988Z,8.60
2023-03-05T00:23:54.125Z,8.32
2023-03-05T00:26:23.838Z,8.38
2023-03-05T00:28:51.806Z,8.65
2023-03-05T00:31:25.899Z,7.82
2023-03-05T00:33:54.957Z,8.50
2023-03-05T00:36:24.431Z,8.25
2023-03-05T00:38:52.486Z,9.13
2023-03-05T00:41:20.249Z,9.48
2023-03-05T00:43:48.020Z,8.25
2023-03-05T00:46:15.837Z,8.48
2023-03-05T00:48:43.474Z,6.95
2023-03-05T00:51:11.619Z,7.00
2023-03-05T00:53:39.343Z,7.25
2023-03-05T00:56:07.178Z,7.95
2023-03-05T00:58:34.989Z,7.28
2023-03-05T01:01:02.883Z,7.55
2023-03-05T01:03:31.617Z,7.28
2023-03-05T01:05:59.814Z,7.15
2023-03-05T01:08:27.971Z,7.30
2023-03-05T01:10:55.419Z,6.95
2023-03-05T01:13:23.138Z,6.97
2023-03-05T01:15:51.168Z,6.95
2023-03-05T01:18:19.917Z,6.90
2023-03-05T01:20:47.919Z,6.90
2023-03-05T01:23:15.785Z,7.68
2023-03-05T01:25:43.271Z,7.12
2023-03-05T01:28:11.462Z,6.90
2023-03-05T01:30:38.812Z,7.05
2023-03-05T01:33:06.233Z,7.90
2023-03-05T01:35:34.010Z,6.95
2023-03-05T01:38:01.499Z,7.43
2023-03-05T01:40:30.919Z,7.78
2023-03-05T01:43:23.877Z,7.47
2023-03-05T01:46:13.130Z,6.87
2023-03-05T01:48:43.009Z,6.97
2023-03-05T01:51:10.552Z,7.18
2023-03-05T01:53:38.071Z,7.32
2023-03-05T01:56:05.963Z,7.12
2023-03-05T01:58:33.587Z,7.57
2023-03-05T02:01:02.086Z,7.00
2023-03-05T02:03:30.061Z,7.53
2023-03-05T02:05:57.456Z,7.72
2023-03-05T02:08:24.894Z,7.37
2023-03-05T02:10:56.638Z,7.37
2023-03-05T02:13:29.927Z,7.03
2023-03-05T02:15:59.441Z,8.10
2023-03-05T02:18:27.597Z,7.65
2023-03-05T02:20:57.678Z,6.93
2023-03-05T02:23:27.753Z,7.90
2023-03-05T02:25:55.182Z,7.37
2023-03-05T02:28:24.942Z,6.78
2023-03-05T02:30:52.577Z,7.47
2023-03-05T02:33:20.521Z,7.55
2023-03-05T02:35:48.322Z,7.47
2023-03-05T02:38:18.582Z,7.12
2023-03-05T02:40:46.103Z,7.32
2023-03-05T02:43:13.754Z,7.55
2023-03-05T02:45:41.603Z,7.62
2023-03-05T02:48:08.974Z,7.30
2023-03-05T02:50:36.759Z,7.97
2023-03-05T02:53:04.572Z,7.00
2023-03-05T02:55:32.085Z,7.75
2023-03-05T02:58:00.369Z,8.23
2023-03-05T03:00:28.730Z,7.97
2023-03-05T03:02:56.216Z,7.43
2023-03-05T03:05:24.029Z,7.68
2023-03-05T03:07:51.743Z,7.28
2023-03-05T03:10:19.172Z,7.95
2023-03-05T03:12:46.608Z,7.37
2023-03-05T03:15:15.757Z,7.82
2023-03-05T03:17:43.344Z,11.75
2023-03-05T03:20:14.090Z,15.40
2023-03-05T03:22:42.930Z,16.08
2023-03-05T03:25:14.181Z,16.55
2023-03-05T03:27:41.851Z,14.00
2023-03-05T03:30:09.960Z,12.65
2023-03-05T03:32:37.402Z,11.45
2023-03-05T03:35:06.137Z,9.10
2023-03-05T03:37:33.534Z,9.18
2023-03-05T03:40:00.971Z,8.05
2023-03-05T03:42:28.608Z,7.78
2023-03-05T03:44:55.949Z,7.62
2023-03-05T03:47:23.329Z,7.75
2023-03-05T03:49:54.161Z,7.18
2023-03-05T03:52:22.920Z,7.95
2023-03-05T03:54:52.425Z,7.20
2023-03-05T03:57:19.824Z,6.32
2023-03-05T03:59:47.603Z,7.05
2023-03-05T04:02:15.299Z,7.43
2023-03-05T04:04:43.010Z,6.80
2023-03-05T04:07:10.563Z,6.87
2023-03-05T04:09:38.070Z,6.93
2023-03-05T04:12:05.973Z,7.15
2023-03-05T04:14:33.613Z,6.87
2023-03-05T04:17:00.977Z,7.18
2023-03-05T04:19:30.684Z,6.75
2023-03-05T04:21:59.009Z,6.70
2023-03-05T04:24:26.514Z,6.45
2023-03-05T04:26:54.306Z,7.50
2023-03-05T04:29:21.678Z,7.65
2023-03-05T04:31:49.063Z,7.43
2023-03-05T04:34:16.810Z,7.53
2023-03-05T04:36:44.493Z,7.82
2023-03-05T04:39:11.952Z,8.35
2023-03-05T04:41:39.681Z,8.82
2023-03-05T04:44:07.184Z,9.15
2023-03-05T04:46:34.572Z,8.15
2023-03-05T04:49:02.236Z,8.13
2023-03-05T04:51:29.669Z,8.50
2023-03-05T04:53:57.219Z,7.75
2023-03-05T04:56:24.877Z,7.97
2023-03-05T04:58:52.399Z,7.28
2023-03-05T05:01:20.326Z,7.00
2023-03-05T05:03:48.088Z,6.87
2023-03-05T05:06:15.559Z,7.20
2023-03-05T05:08:43.502Z,7.40
2023-03-05T05:11:13.973Z,7.35
2023-03-05T05:13:41.353Z,19.25
2023-03-05T05:16:09.147Z,27.73
2023-03-05T05:18:36.815Z,21.70
2023-03-05T05:21:11.702Z,15.93
2023-03-05T05:23:39.412Z,12.27
2023-03-05T05:26:08.706Z,21.33
2023-03-05T05:28:38.257Z,19.98
2023-03-05T05:31:14.384Z,16.90
2023-03-05T05:33:42.227Z,14.87
2023-03-05T05:36:13.519Z,10.57
2023-03-05T05:38:41.040Z,8.43
2023-03-05T05:41:11.844Z,8.15
2023-03-05T05:43:40.260Z,7.60
2023-03-05T05:46:11.549Z,8.20
2023-03-05T05:48:39.602Z,11.47
2023-03-05T05:51:10.362Z,8.57
2023-03-05T05:53:38.219Z,8.30
2023-03-05T05:56:07.196Z,9.25
2023-03-05T05:58:34.893Z,9.07
2023-03-05T06:01:03.057Z,9.15
2023-03-05T06:03:31.030Z,8.43
2023-03-05T06:05:58.877Z,8.50
2023-03-05T06:08:26.222Z,8.45
2023-03-05T06:10:55.282Z,8.50
2023-03-05T06:13:22.938Z,10.57
2023-03-05T06:16:01.174Z,13.70
2023-03-05T06:18:28.966Z,15.55
2023-03-05T06:20:58.042Z,13.57
2023-03-05T06:23:26.247Z,11.25
2023-03-05T06:25:54.252Z,14.57
2023-03-05T06:28:22.185Z,12.40
2023-03-05T06:30:49.729Z,11.25
2023-03-05T06:33:17.691Z,8.65
2023-03-05T06:35:45.049Z,8.20
2023-03-05T06:38:12.407Z,8.70
2023-03-05T06:40:40.037Z,8.18
2023-03-05T06:43:07.688Z,8.85
2023-03-05T06:45:35.115Z,8.07
2023-03-05T06:48:02.786Z,9.18
2023-03-05T06:50:30.196Z,8.73
2023-03-05T06:52:57.582Z,8.98
2023-03-05T06:55:25.209Z,7.85
2023-03-05T06:57:52.613Z,12.13
2023-03-05T07:00:20.515Z,20.55
2023-03-05T07:02:48.260Z,19.02
2023-03-05T07:05:15.710Z,13.30
2023-03-05T07:07:43.120Z,11.70
2023-03-05T07:10:11.359Z,10.05
2023-03-05T07:12:38.824Z,12.25
2023-03-05T07:15:06.983Z,10.57
2023-03-05T07:17:34.589Z,11.05
2023-03-05T07:20:01.967Z,10.90
2023-03-05T07:22:29.325Z,10.38
2023-03-05T07:24:57.015Z,10.10
2023-03-05T07:27:25.550Z,9.93
2023-03-05T07:29:52.875Z,10.27
2023-03-05T07:32:20.614Z,9.30
2023-03-05T07:34:48.069Z,10.30
2023-03-05T07:37:15.472Z,10.43
2023-03-05T07:39:43.584Z,10.15
2023-03-05T07:42:11.932Z,9.95
2023-03-05T07:44:46.201Z,10.02
2023-03-05T07:47:13.824Z,9.30
2023-03-05T07:49:41.682Z,9.45
2023-03-05T07:52:09.817Z,9.27
2023-03-05T07:54:39.247Z,9.98
2023-03-05T07:57:08.156Z,9.80
2023-03-05T07:59:35.793Z,11.63
2023-03-05T08:02:03.223Z,12.65
2023-03-05T08:04:31.947Z,11.40
2023-03-05T08:06:59.866Z,8.73
2023-03-05T08:09:28.272Z,10.32
2023-03-05T08:11:56.605Z,9.70
2023-03-05T08:14:23.977Z,9.27
2023-03-05T08:16:52.313Z,10.13
2023-03-05T08:19:20.361Z,9.25
2023-03-05T08:21:47.984Z,9.60
2023-03-05T08:24:15.530Z,9.68
2023-03-05T08:26:43.665Z,9.65
2023-03-05T08:29:11.128Z,10.77
2023-03-05T08:31:39.248Z,12.80
2023-03-05T08:34:07.168Z,11.80
2023-03-05T08:36:34.582Z,14.95
2023-03-05T08:39:02.221Z,13.40
2023-03-05T08:41:29.861Z,10.63
2023-03-05T08:43:57.338Z,9.45
2023-03-05T08:46:24.996Z,11.43
2023-03-05T08:48:52.748Z,10.10
2023-03-05T08:51:25.764Z,9.88
2023-03-05T08:53:55.699Z,9.32
2023-03-05T08:56:23.079Z,10.88
2023-03-05T08:58:52.424Z,10.82
2023-03-05T09:01:20.278Z,9.43
2023-03-05T09:03:47.677Z,10.27
2023-03-05T09:06:15.098Z,9.20
2023-03-05T09:08:42.834Z,9.27
2023-03-05T09:11:12.178Z,9.70
2023-03-05T09:13:39.803Z,9.80
2023-03-05T09:16:11.008Z,10.00
2023-03-05T09:18:40.134Z,9.63
2023-03-05T09:21:12.672Z,10.05
2023-03-05T09:23:40.531Z,10.02
2023-03-05T09:26:09.517Z,9.73
2023-03-05T09:28:36.928Z,9.93
2023-03-05T09:31:06.069Z,10.48
2023-03-05T09:33:34.260Z,9.55
2023-03-05T09:36:02.525Z,10.60
2023-03-05T09:38:29.968Z,9.20
2023-03-05T09:41:02.347Z,9.23
2023-03-05T09:44:04.954Z,9.48
2023-03-05T09:46:47.323Z,9.10
2023-03-05T09:49:32.393Z,9.10
2023-03-05T09:52:21.657Z,10.48
2023-03-05T09:54:56.643Z,10.95
2023-03-05T09:57:29.211Z,9.65
2023-03-05T10:00:08.751Z,10.50
2023-03-05T10:02:48.155Z,10.20
2023-03-05T10:05:43.645Z,11.38
2023-03-05T10:08:12.194Z,10.02
2023-03-05T10:10:59.961Z,10.20
2023-03-05T10:13:33.433Z,9.07
2023-03-05T10:16:27.645Z,9.15
2023-03-05T10:19:01.122Z,9.43
2023-03-05T10:21:32.640Z,8.98
2023-03-05T10:24:16.237Z,8.70
2023-03-05T10:26:47.207Z,9.27
2023-03-05T10:29:20.843Z,8.90
2023-03-05T10:32:03.873Z,8.55
2023-03-05T10:35:09.001Z,7.78
2023-03-05T10:37:42.673Z,7.97
2023-03-05T10:40:38.028Z,8.55
2023-03-05T10:43:31.252Z,7.50
2023-03-05T10:45:59.081Z,7.82
2023-03-05T10:48:44.896Z,11.38
2023-03-05T10:51:15.623Z,8.73
2023-03-05T10:53:54.111Z,8.32
2023-03-05T10:56:23.194Z,8.57
2023-03-05T10:58:52.686Z,7.72
2023-03-05T11:01:22.138Z,8.60
2023-03-05T11:03:57.883Z,7.90
2023-03-05T11:06:31.518Z,8.52
2023-03-05T11:09:19.877Z,7.72
2023-03-05T11:12:20.412Z,7.75
2023-03-05T11:15:14.492Z,8.05
2023-03-05T11:17:44.788Z,8.30
2023-03-05T11:20:27.524Z,8.02
2023-03-05T11:23:16.267Z,9.60
2023-03-05T11:26:12.838Z,8.95
2023-03-05T11:28:56.621Z,9.07
2023-03-05T11:31:27.309Z,8.30
2023-03-05T11:34:08.001Z,8.07
2023-03-05T11:36:42.853Z,8.18
2023-03-05T11:39:16.491Z,6.85
2023-03-05T11:41:48.990Z,7.28
2023-03-05T11:44:22.070Z,7.30
2023-03-05T11:46:56.107Z,7.70
2023-03-05T11:49:27.719Z,7.10
2023-03-05T11:52:16.372Z,7.43
2023-03-05T11:55:07.823Z,7.60
2023-03-05T11:57:53.573Z,7.72
2023-03-05T12:00:29.127Z,10.32
2023-03-05T12:02:58.216Z,8.48
2023-03-05T12:05:28.131Z,7.43
2023-03-05T12:07:58.670Z,7.85
2023-03-05T12:10:26.953Z,8.48
2023-03-05T12:13:18.566Z,9.20
2023-03-05T12:16:00.206Z,7.90
2023-03-05T12:18:33.694Z,5.20
2023-03-05T12:21:23.194Z,5.57
2023-03-05T12:23:53.565Z,5.72
2023-03-05T12:27:06.109Z,5.10
2023-03-05T12:29:41.009Z,5.28
2023-03-05T12:32:28.924Z,5.95
2023-03-05T12:35:06.450Z,5.75
2023-03-05T12:37:34.052Z,6.12
2023-03-05T12:40:12.672Z,6.10
2023-03-05T12:42:53.964Z,6.43
2023-03-05T12:45:21.471Z,9.38
2023-03-05T12:47:55.156Z,4.95
2023-03-05T12:50:28.424Z,5.95
2023-03-05T12:53:11.838Z,6.57
2023-03-05T12:55:48.325Z,7.37
2023-03-05T12:58:37.289Z,10.48
2023-03-05T13:01:21.569Z,8.35
2023-03-05T13:04:01.715Z,6.57
2023-03-05T13:06:34.090Z,6.90
2023-03-05T13:09:12.871Z,5.93
2023-03-05T13:11:42.625Z,6.47
2023-03-05T13:14:30.487Z,6.05
2023-03-05T13:16:58.069Z,5.93
2023-03-05T13:19:26.047Z,5.25
2023-03-05T13:22:01.593Z,5.85
2023-03-05T13:24:29.975Z,5.80
2023-03-05T13:26:57.565Z,5.78
2023-03-05T13:29:28.220Z,5.25
2023-03-05T13:31:59.059Z,5.18
2023-03-05T13:34:40.782Z,5.28
2023-03-05T13:37:16.892Z,5.10
2023-03-05T13:39:48.322Z,4.65
2023-03-05T13:42:22.642Z,4.82
2023-03-05T13:44:57.441Z,5.15
2023-03-05T13:47:29.501Z,5.28
2023-03-05T13:49:59.855Z,5.62
2023-03-05T13:52:31.521Z,11.60
2023-03-05T13:54:59.849Z,7.12
2023-03-05T13:57:51.507Z,5.20
2023-03-05T14:00:36.274Z,6.05
2023-03-05T14:03:30.296Z,5.50
2023-03-05T14:05:57.696Z,5.28
2023-03-05T14:08:26.546Z,5.95
2023-03-05T14:10:54.748Z,5.53
2023-03-05T14:13:24.414Z,4.97
2023-03-05T14:16:05.405Z,5.65
2023-03-05T14:18:32.915Z,5.50
2023-03-05T14:21:00.853Z,5.62
2023-03-05T14:23:34.222Z,5.18
2023-03-05T14:26:37.839Z,6.20
2023-03-05T14:29:15.033Z,6.10
2023-03-05T14:31:50.955Z,5.65
2023-03-05T14:34:27.318Z,5.82
2023-03-05T14:36:58.278Z,5.18
2023-03-05T14:39:39.834Z,5.07
2023-03-05T14:42:39.231Z,6.57
2023-03-05T14:45:15.581Z,6.65
2023-03-05T14:47:43.537Z,7.50
2023-03-05T14:50:22.361Z,6.60
2023-03-05T14:52:53.114Z,5.95
2023-03-05T14:55:23.017Z,6.50
2023-03-05T14:57:51.695Z,6.35
2023-03-05T15:00:21.628Z,6.18
2023-03-05T15:02:49.280Z,6.50
2023-03-05T15:05:17.785Z,6.12
2023-03-05T15:07:45.720Z,6.90
2023-03-05T15:10:16.959Z,6.60
2023-03-05T15:12:44.966Z,6.47
2023-03-05T15:15:16.146Z,6.95
2023-03-05T15:17:47.817Z,6.53
2023-03-05T15:20:19.086Z,6.12
2023-03-05T15:22:46.642Z,6.15
2023-03-05T15:25:14.436Z,6.62
2023-03-05T15:27:42.129Z,7.50
2023-03-05T15:30:18.298Z,7.53
2023-03-05T15:32:45.922Z,6.50
2023-03-05T15:35:13.348Z,5.68
2023-03-05T15:37:40.734Z,6.57
2023-03-05T15:40:09.159Z,7.00
2023-03-05T15:42:36.565Z,6.22
2023-03-05T15:45:04.264Z,6.32
2023-03-05T15:47:33.526Z,5.93
2023-03-05T15:50:01.010Z,6.03
2023-03-05T15:52:28.452Z,6.80
2023-03-05T15:54:56.241Z,5.68
2023-03-05T15:57:23.850Z,5.45
2023-03-05T15:59:51.248Z,5.78
2023-03-05T16:02:18.955Z,4.57
2023-03-05T16:04:46.723Z,5.70
2023-03-05T16:07:14.736Z,4.60
2023-03-05T16:09:46.237Z,4.82
2023-03-05T16:12:18.076Z,6.10
2023-03-05T16:14:46.102Z,5.95
2023-03-05T16:17:14.232Z,6.40
2023-03-05T16:19:44.561Z,5.45
2023-03-05T16:22:12.228Z,5.62
2023-03-05T16:24:39.932Z,5.18
2023-03-05T16:27:07.593Z,4.15
2023-03-05T16:29:35.163Z,5.57
2023-03-05T16:32:04.100Z,4.70
2023-03-05T16:34:33.597Z,5.40
2023-03-05T16:37:04.384Z,6.90
2023-03-05T16:39:32.031Z,9.23
2023-03-05T16:41:59.402Z,6.35
2023-03-05T16:44:26.830Z,5.60
2023-03-05T16:46:56.339Z,6.72
2023-03-05T16:49:24.047Z,7.35
2023-03-05T16:51:51.521Z,7.12
2023-03-05T16:54:19.188Z,5.85
2023-03-05T16:56:46.579Z,5.32
2023-03-05T16:59:14.033Z,5.40
2023-03-05T17:01:41.653Z,4.43
2023-03-05T17:04:09.067Z,4.80
2023-03-05T17:06:36.716Z,4.37
2023-03-05T17:09:04.331Z,4.07
2023-03-05T17:11:31.931Z,4.10
2023-03-05T17:13:59.339Z,3.87
2023-03-05T17:16:27.091Z,4.97
2023-03-05T17:18:54.506Z,5.03
2023-03-05T17:21:22.004Z,4.78
2023-03-05T17:23:49.746Z,4.05
2023-03-05T17:26:20.882Z,4.37
2023-03-05T17:28:48.497Z,4.43
2023-03-05T17:31:16.472Z,4.47
2023-03-05T17:33:44.084Z,5.15
2023-03-05T17:36:17.828Z,8.10
2023-03-05T17:38:47.543Z,7.57
2023-03-05T17:41:16.450Z,7.37
2023-03-05T17:43:44.169Z,6.55
2023-03-05T17:46:12.547Z,6.00
2023-03-05T17:48:40.029Z,5.72
2023-03-05T17:51:09.249Z,4.53
2023-03-05T17:53:38.882Z,4.12
2023-03-05T17:56:10.599Z,4.50
2023-03-05T17:58:38.688Z,3.75
2023-03-05T18:01:06.752Z,3.92
2023-03-05T18:03:35.377Z,4.40
2023-03-05T18:06:03.811Z,3.90
2023-03-05T18:08:31.237Z,3.62
2023-03-05T18:10:59.079Z,3.30
2023-03-05T18:13:26.445Z,3.62
2023-03-05T18:15:53.826Z,3.70
2023-03-05T18:18:21.565Z,3.40
2023-03-05T18:20:49.243Z,3.62
2023-03-05T18:23:16.591Z,2.90
2023-03-05T18:25:44.965Z,3.53
2023-03-05T18:28:13.704Z,2.90
2023-03-05T18:30:41.963Z,3.25
2023-03-05T18:33:17.455Z,3.15
2023-03-05T18:35:44.876Z,3.20
2023-03-05T18:38:12.525Z,4.12
2023-03-05T18:40:40.224Z,3.10
2023-03-05T18:43:07.601Z,3.35
2023-03-05T18:45:35.262Z,3.28
2023-03-05T18:48:02.657Z,3.42
2023-03-05T18:50:30.155Z,3.25
2023-03-05T18:52:57.901Z,3.00
2023-03-05T18:55:28.051Z,3.37
2023-03-05T18:57:55.762Z,3.47
2023-03-05T19:00:28.835Z,3.55
2023-03-05T19:02:56.874Z,3.70
2023-03-05T19:05:28.115Z,3.12
2023-03-05T19:07:56.080Z,3.47
2023-03-05T19:10:23.802Z,3.72
2023-03-05T19:13:49.005Z,3.90
2023-03-05T19:16:26.623Z,4.75
2023-03-05T19:19:19.975Z,5.07
2023-03-05T19:21:49.690Z,6.25
2023-03-05T19:24:17.484Z,6.70
2023-03-05T19:26:45.202Z,6.57
2023-03-05T19:29:12.942Z,6.03
2023-03-05T19:31:41.075Z,5.65
2023-03-05T19:34:08.542Z,5.50
2023-03-05T19:36:36.237Z,5.57
2023-03-05T19:39:05.151Z,6.32
2023-03-05T19:41:32.756Z,6.78
2023-03-05T19:44:00.622Z,6.18
2023-03-05T19:46:28.477Z,6.70
2023-03-05T19:48:55.868Z,6.32
2023-03-05T19:51:25.171Z,5.70
2023-03-05T19:56:23.508Z,6.70
2023-03-05T19:58:51.246Z,7.05
2023-03-05T20:01:21.469Z,6.55
2023-03-05T20:03:53.010Z,7.45
2023-03-05T20:06:21.499Z,7.30
2023-03-05T20:08:49.308Z,7.28
2023-03-05T20:11:17.670Z,7.57
2023-03-05T20:13:45.587Z,6.70
2023-03-05T20:16:21.729Z,7.37
2023-03-05T20:18:52.802Z,7.12
2023-03-05T20:21:23.192Z,6.82
2023-03-05T20:23:51.647Z,7.35
2023-03-05T20:26:19.597Z,7.70
2023-03-05T20:28:48.228Z,8.48
2023-03-05T20:31:19.259Z,9.40
2023-03-05T20:33:46.987Z,9.98
2023-03-05T20:36:14.382Z,10.93
2023-03-05T20:38:42.073Z,9.98
2023-03-05T20:41:12.678Z,9.05
2023-03-05T20:43:43.505Z,9.27
2023-03-05T20:46:16.476Z,9.23
2023-03-05T20:48:44.068Z,8.20
2023-03-05T20:51:19.353Z,8.20
2023-03-05T20:53:46.868Z,9.00
2023-03-05T20:56:14.647Z,9.57
2023-03-05T20:58:42.082Z,9.18
2023-03-05T21:01:09.629Z,8.95
2023-03-05T21:03:38.728Z,8.55
2023-03-05T21:06:06.629Z,8.00
2023-03-05T21:08:34.292Z,7.00
2023-03-05T21:11:06.634Z,7.53
2023-03-05T21:13:34.022Z,6.78
2023-03-05T21:16:05.986Z,6.90
2023-03-05T21:18:33.728Z,6.40
2023-03-05T21:21:01.279Z,6.43
2023-03-05T21:23:28.967Z,7.32
2023-03-05T21:25:56.593Z,7.20
2023-03-05T21:28:24.558Z,7.25
2023-03-05T21:30:53.906Z,7.43
2023-03-05T21:33:26.481Z,7.07
2023-03-05T21:35:54.793Z,6.72
2023-03-05T21:38:23.145Z,7.30
2023-03-05T21:40:51.033Z,7.10
2023-03-05T21:43:21.145Z,6.57
2023-03-05T21:45:49.219Z,7.70
2023-03-05T21:48:16.929Z,7.45
2023-03-05T21:50:46.110Z,7.95
2023-03-05T21:53:14.475Z,7.28
2023-03-05T21:56:25.360Z,6.45
2023-03-05T21:58:53.452Z,7.40
2023-03-05T22:01:21.436Z,7.60
2023-03-05T22:03:49.747Z,7.57
2023-03-05T22:06:18.215Z,7.30
2023-03-05T22:08:45.765Z,7.43
2023-03-05T22:11:15.204Z,7.62
2023-03-05T22:13:42.663Z,7.40
2023-03-05T22:16:10.341Z,7.85
2023-03-05T22:18:38.168Z,7.60
2023-03-05T22:21:13.643Z,7.60
2023-03-05T22:23:41.346Z,7.35
2023-03-05T22:26:08.736Z,7.45
2023-03-05T22:28:36.438Z,7.22
2023-03-05T22:31:04.264Z,6.70
2023-03-05T22:33:31.954Z,7.60
2023-03-05T22:35:59.509Z,6.43
2023-03-05T22:38:27.235Z,7.00
2023-03-05T22:40:54.701Z,6.80
2023-03-05T22:43:22.055Z,6.53
2023-03-05T22:45:49.826Z,6.93
2023-03-05T22:48:17.285Z,6.75
2023-03-05T22:50:44.819Z,6.65
2023-03-05T22:53:12.682Z,7.00
2023-03-05T22:55:41.428Z,6.35
2023-03-05T22:58:09.420Z,7.12
2023-03-05T23:00:37.438Z,7.18
2023-03-05T23:03:06.465Z,7.40
2023-03-05T23:05:35.183Z,7.80
2023-03-05T23:08:02.904Z,10.93
2023-03-05T23:10:30.311Z,12.00
2023-03-05T23:12:59.257Z,10.45
2023-03-05T23:15:32.088Z,10.98
2023-03-05T23:20:30.125Z,10.50
2023-03-05T23:22:58.153Z,11.25
2023-03-05T23:25:27.727Z,11.30
2023-03-05T23:27:57.939Z,10.50
2023-03-05T23:30:26.698Z,11.02
2023-03-05T23:33:04.645Z,10.48
2023-03-05T23:35:34.003Z,10.48
2023-03-05T23:38:03.913Z,10.68
2023-03-05T23:40:34.125Z,11.50
2023-03-05T23:43:01.650Z,10.45
2023-03-05T23:45:29.269Z,11.18
2023-03-05T23:47:57.268Z,10.52
2023-03-05T23:50:27.225Z,10.13
2023-03-05T23:52:54.674Z,10.68
2023-03-05T23:55:28.012Z,10.70
2023-03-05T23:57:55.976Z,10.80
